sensor_id;sensor_type;location;lat;lon;timestamp;pressure;altitude;pressure_sealevel;temperature
77355;BMP280;66422;51.202;19.936;2023-04-24T00:01:59;98562.10;;;10.18
77355;BMP280;66422;51.202;19.936;2023-04-24T00:17:20;98564.61;;;9.98
77355;BMP280;66422;51.202;19.936;2023-04-24T00:32:40;98552.15;;;10.66
77355;BMP280;66422;51.202;19.936;2023-04-24T00:48:00;98535.43;;;11.45
77355;BMP280;66422;51.202;19.936;2023-04-24T01:03:22;98534.08;;;12.04
77355;BMP280;66422;51.202;19.936;2023-04-24T01:18:41;98513.03;;;12.47
77355;BMP280;66422;51.202;19.936;2023-04-24T01:34:02;98507.55;;;11.99
77355;BMP280;66422;51.202;19.936;2023-04-24T01:49:22;98508.42;;;11.92
77355;BMP280;66422;51.202;19.936;2023-04-24T02:04:42;98495.85;;;11.63
77355;BMP280;66422;51.202;19.936;2023-04-24T02:20:02;98480.60;;;11.97
77355;BMP280;66422;51.202;19.936;2023-04-24T02:35:22;98468.34;;;12.15
77355;BMP280;66422;51.202;19.936;2023-04-24T02:50:41;98453.83;;;11.48
77355;BMP280;66422;51.202;19.936;2023-04-24T03:06:01;98447.53;;;11.44
77355;BMP280;66422;51.202;19.936;2023-04-24T03:21:22;98464.18;;;11.90
77355;BMP280;66422;51.202;19.936;2023-04-24T03:36:42;98457.39;;;11.48
77355;BMP280;66422;51.202;19.936;2023-04-24T03:52:02;98460.59;;;11.25
77355;BMP280;66422;51.202;19.936;2023-04-24T04:07:22;98456.55;;;11.21
77355;BMP280;66422;51.202;19.936;2023-04-24T04:22:42;98462.70;;;10.75
77355;BMP280;66422;51.202;19.936;2023-04-24T04:38:03;98462.30;;;10.65
77355;BMP280;66422;51.202;19.936;2023-04-24T04:53:32;98465.05;;;10.96
77355;BMP280;66422;51.202;19.936;2023-04-24T05:08:52;98468.27;;;11.58
77355;BMP280;66422;51.202;19.936;2023-04-24T05:24:23;98486.34;;;12.51
77355;BMP280;66422;51.202;19.936;2023-04-24T05:40:03;98498.33;;;15.61
77355;BMP280;66422;51.202;19.936;2023-04-24T05:55:25;98452.41;;;14.88
77355;BMP280;66422;51.202;19.936;2023-04-24T06:10:45;98461.88;;;16.68
77355;BMP280;66422;51.202;19.936;2023-04-24T06:26:05;98511.10;;;20.78
77355;BMP280;66422;51.202;19.936;2023-04-24T06:41:25;98453.46;;;19.51
77355;BMP280;66422;51.202;19.936;2023-04-24T06:56:45;98435.83;;;18.76
77355;BMP280;66422;51.202;19.936;2023-04-24T07:12:07;98422.06;;;19.63
77355;BMP280;66422;51.202;19.936;2023-04-24T07:27:26;98418.12;;;19.60
77355;BMP280;66422;51.202;19.936;2023-04-24T07:42:46;98412.77;;;20.78
77355;BMP280;66422;51.202;19.936;2023-04-24T07:58:07;98406.56;;;21.30
77355;BMP280;66422;51.202;19.936;2023-04-24T08:13:27;98399.73;;;21.96
77355;BMP280;66422;51.202;19.936;2023-04-24T08:28:47;98388.16;;;22.32
77355;BMP280;66422;51.202;19.936;2023-04-24T08:44:06;98391.88;;;22.53
77355;BMP280;66422;51.202;19.936;2023-04-24T08:59:27;98387.92;;;22.94
77355;BMP280;66422;51.202;19.936;2023-04-24T09:14:48;98375.58;;;23.24
77355;BMP280;66422;51.202;19.936;2023-04-24T09:30:07;98368.44;;;24.03
77355;BMP280;66422;51.202;19.936;2023-04-24T09:45:28;98360.17;;;22.67
77355;BMP280;66422;51.202;19.936;2023-04-24T10:00:48;98347.31;;;22.91
77355;BMP280;66422;51.202;19.936;2023-04-24T10:16:07;98323.91;;;23.42
77355;BMP280;66422;51.202;19.936;2023-04-24T10:31:31;98313.48;;;24.03
77355;BMP280;66422;51.202;19.936;2023-04-24T10:46:55;98292.02;;;24.37
77355;BMP280;66422;51.202;19.936;2023-04-24T11:02:16;98282.41;;;24.75
77355;BMP280;66422;51.202;19.936;2023-04-24T11:17:38;98276.86;;;24.43
77355;BMP280;66422;51.202;19.936;2023-04-24T11:33:03;98263.61;;;23.24
77355;BMP280;66422;51.202;19.936;2023-04-24T11:48:23;98249.52;;;24.40
77355;BMP280;66422;51.202;19.936;2023-04-24T12:03:47;98244.77;;;24.09
77355;BMP280;66422;51.202;19.936;2023-04-24T12:19:07;98232.69;;;24.07
77355;BMP280;66422;51.202;19.936;2023-04-24T12:34:27;98224.94;;;24.32
77355;BMP280;66422;51.202;19.936;2023-04-24T12:49:46;98207.23;;;24.33
77355;BMP280;66422;51.202;19.936;2023-04-24T13:05:06;98193.75;;;24.65
77355;BMP280;66422;51.202;19.936;2023-04-24T13:20:26;98169.33;;;24.61
77355;BMP280;66422;51.202;19.936;2023-04-24T13:35:46;98149.73;;;24.40
77355;BMP280;66422;51.202;19.936;2023-04-24T13:51:05;98137.66;;;23.32
77355;BMP280;66422;51.202;19.936;2023-04-24T14:06:25;98115.55;;;23.50
77355;BMP280;66422;51.202;19.936;2023-04-24T14:21:45;98114.11;;;24.31
77355;BMP280;66422;51.202;19.936;2023-04-24T14:37:04;98098.71;;;23.69
77355;BMP280;66422;51.202;19.936;2023-04-24T14:52:24;98095.34;;;22.78
77355;BMP280;66422;51.202;19.936;2023-04-24T15:07:44;98088.23;;;22.12
77355;BMP280;66422;51.202;19.936;2023-04-24T15:23:10;98077.52;;;21.62
77355;BMP280;66422;51.202;19.936;2023-04-24T15:38:30;98064.32;;;21.49
77355;BMP280;66422;51.202;19.936;2023-04-24T15:53:50;98050.57;;;21.48
77355;BMP280;66422;51.202;19.936;2023-04-24T16:09:09;98049.52;;;21.73
77355;BMP280;66422;51.202;19.936;2023-04-24T16:24:29;98071.61;;;20.81
77355;BMP280;66422;51.202;19.936;2023-04-24T16:39:49;98097.27;;;20.21
77355;BMP280;66422;51.202;19.936;2023-04-24T16:55:09;98106.38;;;19.82
77355;BMP280;66422;51.202;19.936;2023-04-24T17:10:28;98107.21;;;19.64
77355;BMP280;66422;51.202;19.936;2023-04-24T17:25:48;98142.32;;;19.17
77355;BMP280;66422;51.202;19.936;2023-04-24T17:41:08;98159.46;;;18.82
77355;BMP280;66422;51.202;19.936;2023-04-24T17:56:28;98176.66;;;18.45
77355;BMP280;66422;51.202;19.936;2023-04-24T18:11:49;98189.10;;;18.11
77355;BMP280;66422;51.202;19.936;2023-04-24T18:27:09;98212.12;;;17.65
77355;BMP280;66422;51.202;19.936;2023-04-24T18:42:28;98226.06;;;17.54
77355;BMP280;66422;51.202;19.936;2023-04-24T18:57:48;98238.40;;;17.37
77355;BMP280;66422;51.202;19.936;2023-04-24T19:13:08;98247.30;;;17.01
77355;BMP280;66422;51.202;19.936;2023-04-24T19:28:27;98259.73;;;16.64
77355;BMP280;66422;51.202;19.936;2023-04-24T19:43:47;98266.96;;;16.23
77355;BMP280;66422;51.202;19.936;2023-04-24T19:59:08;98273.76;;;16.00
77355;BMP280;66422;51.202;19.936;2023-04-24T20:14:28;98273.36;;;15.88
77355;BMP280;66422;51.202;19.936;2023-04-24T20:29:47;98281.63;;;15.77
77355;BMP280;66422;51.202;19.936;2023-04-24T20:45:07;98288.84;;;15.65
77355;BMP280;66422;51.202;19.936;2023-04-24T21:00:28;98279.11;;;15.47
77355;BMP280;66422;51.202;19.936;2023-04-24T21:15:48;98282.91;;;15.41
77355;BMP280;66422;51.202;19.936;2023-04-24T21:31:07;98287.17;;;15.37
77355;BMP280;66422;51.202;19.936;2023-04-24T21:46:27;98285.45;;;15.24
77355;BMP280;66422;51.202;19.936;2023-04-24T22:01:46;98278.60;;;14.99
77355;BMP280;66422;51.202;19.936;2023-04-24T22:17:06;98279.61;;;14.57
77355;BMP280;66422;51.202;19.936;2023-04-24T22:32:28;98279.88;;;14.74
77355;BMP280;66422;51.202;19.936;2023-04-24T22:47:50;98262.11;;;14.62
77355;BMP280;66422;51.202;19.936;2023-04-24T23:03:10;98261.84;;;14.43
77355;BMP280;66422;51.202;19.936;2023-04-24T23:18:30;98259.25;;;14.46
77355;BMP280;66422;51.202;19.936;2023-04-24T23:33:49;98253.36;;;14.27
77355;BMP280;66422;51.202;19.936;2023-04-24T23:49:09;98257.72;;;14.18
